ΕΜΥ, Εθνική Μετεωρολογική Υπηρεσία - Δελτία Καιρού, Προγνώσεις

ΑΕΡΟΝΑΥΤΙΛΙΑ

GREEK AIRPORTS CODES

LGTG 212050Z 28004KT 9999 FEW020 BKN030 16/09 Q1023 RMK BKN080=

EUROPEAN AIRPORTS CODES

LFPO 212200Z 18003KT 9999 BKN016 BKN230 15/12 Q1010 NOSIG=